Time;durP1;ratioP1;P1;durP2;ratioP2;P2;SDS_P1;SDS_P2;PMS_P1;PMS_P2;Temp;Humidity;BMP_temperature;BMP_pressure;BME280_temperature;BME280_humidity;BME280_pressure;Samples;Min_cycle;Max_cycle;Signal;HPM_P1;HPM_P2
2023/03/01 00:00:05;;;;;;;5.28;3.40;;;;;;;-3.16;63.08;95179.59;6320262;28;20094;-67
2023/03/01 00:03:07;;;;;;;6.63;4.00;;;;;;;-3.09;62.52;95169.06;6320165;28;20079;-67
2023/03/01 00:06:11;;;;;;;5.63;3.95;;;;;;;-3.14;63.04;95176.13;6320066;28;20055;-68
2023/03/01 00:09:15;;;;;;;5.10;3.83;;;;;;;-3.13;62.74;95168.38;6320391;28;20044;-68
2023/03/01 00:12:22;;;;;;;5.25;3.55;;;;;;;-3.10;62.88;95162.28;6320321;28;20043;-67
2023/03/01 00:15:26;;;;;;;6.55;4.00;;;;;;;-3.14;62.54;95165.84;6320204;28;20040;-67
2023/03/01 00:18:30;;;;;;;4.22;2.88;;;;;;;-3.14;63.06;95171.84;6320309;28;20321;-68
2023/03/01 00:21:35;;;;;;;5.18;4.05;;;;;;;-3.20;63.33;95157.50;6319569;28;20040;-67
2023/03/01 00:24:38;;;;;;;3.38;2.75;;;;;;;-3.19;63.34;95148.88;6320002;28;20048;-67
2023/03/01 00:27:39;;;;;;;4.72;3.42;;;;;;;-3.23;63.70;95162.75;6319487;28;20047;-67
2023/03/01 00:30:45;;;;;;;5.20;3.78;;;;;;;-3.22;64.09;95151.56;6319867;28;20073;-68
2023/03/01 00:33:46;;;;;;;3.38;2.58;;;;;;;-3.14;63.67;95150.41;6319700;28;20047;-67
2023/03/01 00:36:47;;;;;;;4.00;2.40;;;;;;;-3.07;63.43;95139.00;6316529;28;20052;-68
2023/03/01 00:39:49;;;;;;;6.90;5.05;;;;;;;-3.34;64.03;95122.88;6319180;28;20048;-67
2023/03/01 00:42:53;;;;;;;7.28;4.65;;;;;;;-3.24;64.30;95130.19;6319614;28;20039;-68
2023/03/01 00:46:01;;;;;;;6.85;4.63;;;;;;;-3.21;64.52;95130.06;6319495;28;20039;-68
2023/03/01 00:49:05;;;;;;;5.70;3.97;;;;;;;-3.07;63.86;95116.66;6319658;28;20486;-68
2023/03/01 00:52:12;;;;;;;5.72;4.25;;;;;;;-3.03;63.80;95118.25;6319544;28;20052;-68
2023/03/01 00:55:16;;;;;;;6.15;3.97;;;;;;;-3.09;63.69;95107.34;6318706;28;20402;-68
2023/03/01 00:58:18;;;;;;;6.65;4.05;;;;;;;-3.10;63.82;95105.66;6318119;28;20048;-67
2023/03/01 01:01:24;;;;;;;5.88;4.63;;;;;;;-2.88;63.46;95106.47;6319020;28;20047;-67
2023/03/01 01:04:29;;;;;;;8.63;5.93;;;;;;;-3.05;63.54;95090.88;6318747;28;20048;-68
2023/03/01 01:07:33;;;;;;;10.10;5.93;;;;;;;-3.03;63.58;95101.94;6319302;28;20040;-66
2023/03/01 01:10:37;;;;;;;8.88;5.53;;;;;;;-3.10;64.40;95100.53;6319126;28;20036;-67
2023/03/01 01:13:43;;;;;;;9.57;5.30;;;;;;;-3.07;64.15;95090.09;6319190;28;20040;-67
2023/03/01 01:16:45;;;;;;;8.20;5.32;;;;;;;-3.17;64.20;95093.06;6318988;28;20048;-66
2023/03/01 01:19:49;;;;;;;8.23;5.57;;;;;;;-3.05;64.00;95099.44;6319043;28;20143;-67
2023/03/01 01:22:53;;;;;;;8.55;5.53;;;;;;;-3.01;63.99;95080.41;6318994;28;20489;-68
2023/03/01 01:25:54;;;;;;;10.75;6.43;;;;;;;-2.99;63.93;95072.63;6318979;28;20549;-68
2023/03/01 01:28:58;;;;;;;7.13;4.93;;;;;;;-2.96;64.11;95077.66;6318670;28;20067;-68
2023/03/01 01:32:06;;;;;;;9.07;5.63;;;;;;;-2.89;63.73;95066.19;6319060;28;20520;-68
2023/03/01 01:35:08;;;;;;;8.63;4.30;;;;;;;-2.78;63.03;95064.00;6318953;28;20047;-68
2023/03/01 01:38:09;;;;;;;8.95;6.47;;;;;;;-2.72;62.98;95061.19;6318239;28;20044;-67
2023/03/01 01:41:15;;;;;;;5.22;3.30;;;;;;;-2.73;63.19;95054.34;6318426;28;20044;-67
2023/03/01 01:44:27;;;;;;;8.38;4.65;;;;;;;-2.68;62.97;95053.34;6317861;28;20046;-67
2023/03/01 01:47:33;;;;;;;9.40;6.70;;;;;;;-2.72;62.97;95050.91;6318757;28;20046;-69
2023/03/01 01:50:38;;;;;;;10.85;6.18;;;;;;;-2.92;63.75;95045.72;6321489;28;20048;-67
2023/03/01 01:53:41;;;;;;;11.38;7.30;;;;;;;-2.95;63.80;95043.28;6323013;28;20040;-68
2023/03/01 01:56:49;;;;;;;9.67;6.57;;;;;;;-2.81;63.52;95056.41;6322716;28;20136;-68
2023/03/01 01:59:57;;;;;;;6.35;4.68;;;;;;;-2.78;63.32;95040.00;6322912;28;20055;-67
2023/03/01 02:03:11;;;;;;;9.40;6.00;;;;;;;-2.86;63.76;95052.34;6322965;28;20044;-67
2023/03/01 02:06:32;;;;;;;11.60;7.57;;;;;;;-2.73;63.20;95033.75;6322979;28;20047;-67
2023/03/01 02:09:35;;;;;;;12.35;7.45;;;;;;;-2.87;63.88;95030.94;6322735;28;20054;-68
2023/03/01 02:12:42;;;;;;;10.93;7.30;;;;;;;-2.79;63.61;95039.19;6322924;28;20043;-67
2023/03/01 02:16:12;;;;;;;11.70;7.82;;;;;;;-2.88;64.27;95029.28;6321719;28;20048;-67
2023/03/01 02:19:28;;;;;;;12.48;6.78;;;;;;;-2.77;63.92;95016.78;6321868;28;20404;-67
2023/03/01 02:22:37;;;;;;;13.18;7.15;;;;;;;-2.82;63.92;95008.41;6321602;28;20044;-67
2023/03/01 02:25:51;;;;;;;13.70;8.52;;;;;;;-2.81;64.15;95010.09;6321949;28;20052;-67
2023/03/01 02:28:57;;;;;;;12.45;8.35;;;;;;;-2.69;63.73;95005.31;6322205;28;20143;-68
2023/03/01 02:32:03;;;;;;;15.18;9.70;;;;;;;-2.86;64.11;94996.59;6322040;28;20047;-68
2023/03/01 02:35:06;;;;;;;14.43;8.40;;;;;;;-2.69;63.06;95005.31;6322068;28;20131;-68
2023/03/01 02:38:10;;;;;;;10.93;5.82;;;;;;;-2.74;63.46;94990.91;6319806;28;20059;-67
2023/03/01 02:41:15;;;;;;;11.15;5.30;;;;;;;-2.83;63.62;94995.59;6321624;28;20532;-67
2023/03/01 02:44:21;;;;;;;14.60;7.85;;;;;;;-3.05;64.35;94991.38;6322131;28;20120;-67
2023/03/01 02:47:23;;;;;;;10.48;6.90;;;;;;;-3.01;63.75;94992.91;6320625;28;20040;-67
2023/03/01 02:50:30;;;;;;;9.27;5.90;;;;;;;-3.02;64.11;94987.84;6321340;28;20540;-67
2023/03/01 02:53:36;;;;;;;14.90;8.60;;;;;;;-2.99;64.24;94985.13;6322075;28;20043;-67
2023/03/01 02:56:38;;;;;;;10.98;6.20;;;;;;;-2.85;63.89;94971.69;6321457;28;20520;-67
2023/03/01 02:59:43;;;;;;;10.00;6.53;;;;;;;-3.08;64.54;94975.25;6321314;28;20040;-68
2023/03/01 03:02:50;;;;;;;11.18;7.88;;;;;;;-3.26;65.21;94977.66;6321483;28;20051;-67
2023/03/01 03:05:53;;;;;;;10.05;7.60;;;;;;;-3.33;65.29;94971.09;6319850;28;20143;-67
2023/03/01 03:08:55;;;;;;;9.70;6.53;;;;;;;-3.30;65.17;94977.88;6321383;28;20036;-67
2023/03/01 03:12:01;;;;;;;9.05;5.25;;;;;;;-3.34;64.54;94978.88;6321532;28;20043;-68
2023/03/01 03:15:08;;;;;;;10.35;6.50;;;;;;;-3.42;63.96;94974.06;6321527;28;20044;-68
2023/03/01 03:18:14;;;;;;;7.40;5.55;;;;;;;-3.69;63.94;94974.25;6321254;28;20397;-67
2023/03/01 03:21:18;;;;;;;4.13;3.38;;;;;;;-3.64;62.79;94962.06;6321268;28;20073;-68
2023/03/01 03:24:22;;;;;;;;;;;;;;;-3.72;62.95;94973.53;6321683;28;20055;-66
2023/03/01 03:27:25;;;;;;;8.40;4.88;;;;;;;-3.65;62.26;94975.81;6319803;28;19920;-69
2023/03/01 03:30:32;;;;;;;7.78;5.03;;;;;;;-3.67;62.02;94987.88;6321321;28;20129;-67
2023/03/01 03:33:36;;;;;;;6.43;4.63;;;;;;;-3.56;62.15;94984.06;6321150;28;20050;-68
2023/03/01 03:36:40;;;;;;;7.45;4.35;;;;;;;-3.35;60.85;94975.47;6320834;28;20128;-68
2023/03/01 03:39:44;;;;;;;;;;;;;;;-3.41;60.32;94983.44;6321476;28;20062;-68
2023/03/01 03:42:49;;;;;;;5.13;3.50;;;;;;;-3.53;60.35;94969.34;6320695;28;20407;-68
2023/03/01 03:45:56;;;;;;;8.15;5.53;;;;;;;-3.75;60.75;94964.22;6320751;28;20129;-68
2023/03/01 03:49:01;;;;;;;8.35;4.47;;;;;;;-3.61;60.35;94969.66;6320840;28;20043;-67
2023/03/01 03:52:13;;;;;;;8.88;5.30;;;;;;;-3.69;60.48;94979.38;6320357;28;20052;-67
2023/03/01 03:55:19;;;;;;;9.02;6.22;;;;;;;-3.64;60.48;94976.66;6320466;28;20716;-67
2023/03/01 03:58:23;;;;;;;6.15;4.05;;;;;;;-3.46;59.81;94964.78;6320285;28;20129;-67
2023/03/01 04:01:28;;;;;;;7.20;5.38;;;;;;;-3.55;59.73;94963.41;6320333;28;20101;-68
2023/03/01 04:04:33;;;;;;;8.10;5.90;;;;;;;-3.64;60.12;94980.06;6320072;28;20055;-67
2023/03/01 04:07:39;;;;;;;9.55;5.93;;;;;;;-3.49;59.99;94977.75;6318935;28;20129;-67
2023/03/01 04:10:47;;;;;;;4.97;3.72;;;;;;;-3.20;59.41;94951.69;6320130;28;20078;-67
2023/03/01 04:13:52;;;;;;;9.00;5.25;;;;;;;-3.16;58.88;94924.09;6319173;28;20050;-67
2023/03/01 04:16:57;;;;;;;7.35;4.68;;;;;;;-2.98;58.16;94935.34;6319445;28;20124;-68
2023/03/01 04:20:05;;;;;;;9.70;5.68;;;;;;;-3.07;57.60;94938.31;6320145;28;20096;-67
2023/03/01 04:23:10;;;;;;;8.80;5.70;;;;;;;-3.36;58.29;94919.81;6319481;28;20531;-68
2023/03/01 04:26:15;;;;;;;10.85;6.22;;;;;;;-3.47;58.68;94922.81;6319542;28;20129;-68
2023/03/01 04:29:18;;;;;;;;;;;;;;;-3.64;59.19;94920.94;6320145;28;20125;-68
2023/03/01 04:32:23;;;;;;;7.25;4.13;;;;;;;-3.65;58.92;94919.28;6319989;28;19973;-68
2023/03/01 04:35:28;;;;;;;10.30;6.57;;;;;;;-3.64;58.93;94905.50;6319959;28;20515;-68
2023/03/01 04:38:33;;;;;;;5.70;3.22;;;;;;;-3.39;58.28;94910.47;6319559;28;20121;-69
2023/03/01 04:41:39;;;;;;;9.15;4.35;;;;;;;-3.50;58.53;94919.53;6319743;28;20152;-68
2023/03/01 04:44:44;;;;;;;8.65;4.55;;;;;;;-3.68;58.86;94914.25;6319402;28;20104;-68
2023/03/01 04:47:46;;;;;;;;;;;;;;;-3.75;59.23;94933.38;6319887;28;20117;-68
2023/03/01 04:50:51;;;;;;;8.40;4.97;;;;;;;-3.96;59.94;94918.81;6317865;28;19920;-67
2023/03/01 04:53:56;;;;;;;12.10;6.30;;;;;;;-3.86;60.28;94922.69;6318121;28;20056;-69
2023/03/01 04:57:02;;;;;;;10.25;5.60;;;;;;;-3.38;59.25;94917.28;6319381;28;20048;-68
2023/03/01 05:00:22;;;;;;;11.95;7.18;;;;;;;-3.10;58.48;94915.28;6319068;28;20039;-67
2023/03/01 05:03:27;;;;;;;10.23;5.90;;;;;;;-2.59;57.54;94916.47;6319330;28;20182;-68
2023/03/01 05:06:33;;;;;;;10.73;7.07;;;;;;;-2.43;56.87;94909.75;6319312;28;20113;-68
2023/03/01 05:09:38;;;;;;;8.77;5.75;;;;;;;-2.28;57.09;94893.56;6318896;28;20079;-67
2023/03/01 05:12:43;;;;;;;9.27;6.15;;;;;;;-1.79;56.32;94892.16;6319084;28;20132;-67
2023/03/01 05:15:49;;;;;;;9.88;6.30;;;;;;;-1.26;55.35;94896.44;6318923;28;20581;-68
2023/03/01 05:18:55;;;;;;;8.50;4.70;;;;;;;-0.62;54.58;94898.31;6319297;28;20048;-68
2023/03/01 05:22:01;;;;;;;9.23;5.32;;;;;;;-0.06;52.31;94898.75;6318973;28;20040;-67
2023/03/01 05:25:07;;;;;;;9.52;6.30;;;;;;;-0.18;50.44;94883.91;6321711;28;20040;-68
2023/03/01 05:28:15;;;;;;;10.77;6.20;;;;;;;-0.65;50.66;94882.97;6324102;28;20054;-67
2023/03/01 05:31:20;;;;;;;8.77;5.68;;;;;;;-0.89;50.78;94874.75;6324093;28;20132;-68
2023/03/01 05:34:36;;;;;;;8.60;5.45;;;;;;;-0.71;51.17;94865.19;6323910;28;20094;-68
2023/03/01 05:37:47;;;;;;;9.13;5.40;;;;;;;-0.33;51.24;94873.50;6323735;28;20093;-67
2023/03/01 05:40:52;;;;;;;4.00;2.78;;;;;;;0.16;50.21;94860.44;6324568;28;20067;-69
2023/03/01 05:43:57;;;;;;;9.15;3.95;;;;;;;0.48;48.62;94859.53;6323950;28;20520;-68
2023/03/01 05:47:02;;;;;;;7.07;4.38;;;;;;;0.97;47.68;94864.44;6323666;28;20125;-68
2023/03/01 05:50:07;;;;;;;5.80;3.83;;;;;;;1.98;45.43;94855.63;6323734;28;20529;-67
2023/03/01 05:53:09;;;;;;;;;;;;;;;2.11;44.03;94850.50;6322426;28;20417;-68
2023/03/01 05:56:13;;;;;;;8.88;6.13;;;;;;;1.17;46.40;94852.91;6323473;28;20037;-68
2023/03/01 05:59:18;;;;;;;5.65;4.20;;;;;;;0.79;46.58;94851.66;6323307;28;20044;-67
2023/03/01 06:02:23;;;;;;;9.15;5.32;;;;;;;0.41;47.05;94848.69;6323442;28;20121;-69
2023/03/01 06:05:29;;;;;;;5.80;3.50;;;;;;;0.16;48.30;94854.44;6323418;28;20063;-68
2023/03/01 06:08:33;;;;;;;8.23;4.70;;;;;;;-0.06;48.78;94859.97;6323276;28;20182;-68
2023/03/01 06:11:38;;;;;;;9.75;5.47;;;;;;;-0.44;49.84;94849.16;6323231;28;20039;-67
2023/03/01 06:14:43;;;;;;;9.32;6.15;;;;;;;-0.70;50.29;94828.13;6323104;28;20129;-66
2023/03/01 06:17:48;;;;;;;8.25;5.38;;;;;;;-0.67;50.47;94843.47;6321852;28;20050;-68
2023/03/01 06:20:57;;;;;;;5.90;4.72;;;;;;;-0.52;50.87;94823.72;6322960;28;20117;-67
2023/03/01 06:24:01;;;;;;;5.93;4.53;;;;;;;-0.54;50.26;94834.16;6323020;28;20117;-68
2023/03/01 06:27:06;;;;;;;7.13;5.53;;;;;;;-0.85;50.98;94839.25;6322826;28;20523;-67
2023/03/01 06:30:13;;;;;;;9.23;5.72;;;;;;;-0.73;50.99;94833.47;6322946;28;20532;-67
2023/03/01 06:33:24;;;;;;;7.30;4.13;;;;;;;-0.50;50.32;94832.22;6323015;28;20130;-66
2023/03/01 06:36:28;;;;;;;5.50;4.40;;;;;;;-0.39;50.20;94826.50;6321428;28;20501;-68
2023/03/01 06:39:33;;;;;;;7.03;4.60;;;;;;;-0.24;50.18;94833.38;6322170;28;20048;-67
2023/03/01 06:42:39;;;;;;;4.70;3.53;;;;;;;0.15;49.23;94843.25;6321895;28;20483;-67
2023/03/01 06:45:45;;;;;;;7.63;4.70;;;;;;;0.51;48.80;94839.50;6322219;28;20043;-66
2023/03/01 06:48:48;;;;;;;3.05;2.50;;;;;;;1.23;47.49;94848.16;6322197;28;20117;-67
2023/03/01 06:51:52;;;;;;;5.30;3.80;;;;;;;1.64;46.17;94852.56;6321809;28;20058;-68
2023/03/01 06:54:57;;;;;;;5.65;3.88;;;;;;;1.73;45.49;94848.59;6303558;28;20055;-67
2023/03/01 06:58:03;;;;;;;7.82;4.90;;;;;;;1.30;45.58;94841.69;6320595;28;20160;-69
2023/03/01 07:01:08;;;;;;;7.15;5.13;;;;;;;0.97;46.29;94857.50;6322158;28;20117;-68
2023/03/01 07:04:14;;;;;;;6.90;5.20;;;;;;;0.67;46.59;94842.84;6322069;28;20137;-68
2023/03/01 07:07:20;;;;;;;8.00;5.43;;;;;;;0.30;47.59;94840.72;6322017;28;20136;-67
2023/03/01 07:10:25;;;;;;;8.50;5.97;;;;;;;0.33;48.31;94828.44;6322106;28;20413;-68
2023/03/01 07:13:30;;;;;;;8.02;5.35;;;;;;;0.42;47.84;94820.13;6321436;28;20201;-67
2023/03/01 07:16:34;;;;;;;6.72;4.43;;;;;;;0.51;48.00;94818.81;6321539;28;20082;-67
2023/03/01 07:19:37;;;;;;;;;;;;;;;0.92;47.30;94815.50;6321963;28;20524;-68
2023/03/01 07:22:42;;;;;;;5.85;4.15;;;;;;;0.84;46.96;94815.97;6321180;28;20052;-67
2023/03/01 07:25:54;;;;;;;7.18;5.43;;;;;;;0.97;46.31;94799.72;6319715;28;20059;-68
2023/03/01 07:29:01;;;;;;;8.15;5.60;;;;;;;1.21;46.45;94794.78;6321116;28;20063;-67
2023/03/01 07:32:07;;;;;;;5.78;4.18;;;;;;;1.52;45.73;94780.75;6321247;28;20090;-68
2023/03/01 07:35:12;;;;;;;9.35;6.90;;;;;;;1.78;44.88;94756.63;6320785;28;20085;-68
2023/03/01 07:38:16;;;;;;;10.90;6.85;;;;;;;2.12;43.86;94763.97;6320739;28;20074;-67
2023/03/01 07:41:20;;;;;;;9.20;6.03;;;;;;;2.48;42.78;94752.91;6320684;28;20501;-67
2023/03/01 07:44:25;;;;;;;10.23;6.53;;;;;;;2.99;42.10;94758.09;6320825;28;20044;-68
2023/03/01 07:47:30;;;;;;;5.97;4.82;;;;;;;3.78;40.10;94745.63;6320663;28;20459;-66
2023/03/01 07:50:35;;;;;;;10.68;6.28;;;;;;;3.72;39.65;94753.88;6321246;28;20052;-68
2023/03/01 07:53:40;;;;;;;6.43;3.75;;;;;;;3.48;39.79;94740.84;6320775;28;20130;-67
2023/03/01 07:56:45;;;;;;;7.93;6.20;;;;;;;3.39;40.16;94734.53;6320420;28;20508;-67
2023/03/01 07:59:49;;;;;;;9.68;6.68;;;;;;;3.79;40.03;94755.94;6319140;28;20040;-68
2023/03/01 08:02:58;;;;;;;9.55;6.03;;;;;;;4.57;38.59;94745.94;6319381;28;20032;-68
2023/03/01 08:06:06;;;;;;;7.05;4.90;;;;;;;5.48;36.61;94739.78;6320575;28;20078;-68
2023/03/01 08:09:11;;;;;;;4.10;3.30;;;;;;;6.02;34.39;94742.41;6319273;28;20169;-68
2023/03/01 08:12:19;;;;;;;5.13;4.15;;;;;;;5.71;35.19;94757.06;6320190;28;20541;-68
2023/03/01 08:15:23;;;;;;;3.67;3.03;;;;;;;5.16;34.55;94758.78;6318535;28;20566;-67
2023/03/01 08:18:26;;;;;;;3.70;3.03;;;;;;;4.10;35.58;94739.88;6320297;28;20181;-68
2023/03/01 08:21:31;;;;;;;3.47;2.90;;;;;;;3.20;36.84;94753.22;6319840;28;20501;-68
2023/03/01 08:24:36;;;;;;;4.40;2.05;;;;;;;2.61;38.03;94747.75;6320343;28;20079;-70
2023/03/01 08:27:41;;;;;;;2.95;2.10;;;;;;;2.41;38.28;94743.91;6319843;28;20485;-67
2023/03/01 08:30:45;;;;;;;2.58;2.10;;;;;;;1.97;39.17;94751.06;6320042;28;20079;-67
2023/03/01 08:33:56;;;;;;;4.18;2.83;;;;;;;1.86;40.11;94752.69;6318856;28;20040;-67
2023/03/01 08:37:01;;;;;;;2.78;2.00;;;;;;;2.11;39.53;94752.75;6319773;28;20078;-67
2023/03/01 08:40:07;;;;;;;2.80;2.20;;;;;;;2.21;38.85;94742.63;6319378;28;20116;-68
2023/03/01 08:43:12;;;;;;;2.35;1.92;;;;;;;2.42;38.88;94735.16;6319956;28;20125;-68
2023/03/01 08:46:16;;;;;;;3.03;2.08;;;;;;;3.20;37.34;94721.16;6318108;28;20082;-69
2023/03/01 08:49:22;;;;;;;2.40;1.98;;;;;;;3.77;35.90;94731.81;6319613;28;20116;-68
2023/03/01 08:52:29;;;;;;;2.75;2.13;;;;;;;4.64;35.02;94715.84;6318018;28;20105;-67
2023/03/01 08:55:34;;;;;;;2.90;2.13;;;;;;;4.74;34.25;94724.63;6317690;28;20516;-67
2023/03/01 08:58:40;;;;;;;3.17;2.30;;;;;;;3.93;34.72;94717.69;6319441;28;20040;-67
2023/03/01 09:01:45;;;;;;;4.90;2.83;;;;;;;3.30;36.11;94714.41;6318275;28;20117;-68
2023/03/01 09:04:50;;;;;;;2.90;2.30;;;;;;;3.39;36.15;94705.94;6319662;28;20032;-68
2023/03/01 09:07:54;;;;;;;3.13;2.40;;;;;;;3.15;36.25;94714.53;6318303;28;20036;-67
2023/03/01 09:11:01;;;;;;;4.22;2.72;;;;;;;2.94;35.94;94700.44;6319274;28;20048;-68
2023/03/01 09:14:07;;;;;;;3.08;2.63;;;;;;;2.43;36.92;94716.06;6319440;28;20647;-68
2023/03/01 09:17:11;;;;;;;3.20;1.75;;;;;;;2.20;36.91;94708.03;6317899;28;20040;-68
2023/03/01 09:20:17;;;;;;;2.38;2.17;;;;;;;2.06;36.78;94723.69;6319063;28;20459;-69
2023/03/01 09:23:23;;;;;;;3.00;1.88;;;;;;;1.73;37.43;94732.75;6318949;28;20044;-67
2023/03/01 09:26:27;;;;;;;3.40;1.65;;;;;;;1.68;37.46;94721.00;6319186;28;20090;-67
2023/03/01 09:29:32;;;;;;;2.58;1.85;;;;;;;1.96;37.69;94705.31;6319064;28;20113;-67
2023/03/01 09:32:36;;;;;;;2.80;2.50;;;;;;;3.47;35.84;94692.41;6317665;28;20451;-68
2023/03/01 09:35:45;;;;;;;2.85;2.10;;;;;;;6.08;32.27;94699.31;6318854;28;20043;-67
2023/03/01 09:38:53;;;;;;;2.80;2.30;;;;;;;8.89;29.18;94719.38;6318837;28;20509;-68
2023/03/01 09:42:04;;;;;;;2.90;2.28;;;;;;;10.31;26.88;94700.56;6318559;28;20044;-67
2023/03/01 09:45:21;;;;;;;3.10;2.60;;;;;;;12.08;24.68;94709.78;6317614;28;20036;-67
2023/03/01 09:48:28;;;;;;;2.40;2.15;;;;;;;13.58;23.11;94703.25;6318598;28;20036;-67
2023/03/01 09:51:38;;;;;;;2.40;2.20;;;;;;;13.65;22.16;94693.66;6318499;28;20071;-67
2023/03/01 09:54:42;;;;;;;1.90;1.80;;;;;;;13.01;21.97;94664.59;6318671;28;20121;-68
2023/03/01 09:57:55;;;;;;;2.97;2.00;;;;;;;10.50;24.54;94664.56;6318650;28;20556;-68
2023/03/01 10:01:10;;;;;;;2.67;2.28;;;;;;;8.13;27.34;94673.00;6318468;28;20500;-68
2023/03/01 10:04:32;;;;;;;3.13;2.63;;;;;;;8.48;27.27;94666.34;6317183;28;20112;-67
2023/03/01 10:08:03;;;;;;;3.78;2.40;;;;;;;9.36;25.99;94672.94;6318305;28;20128;-68
2023/03/01 10:11:28;;;;;;;3.95;2.25;;;;;;;8.79;26.40;94659.09;6319033;28;20071;-69
2023/03/01 10:14:51;;;;;;;2.92;2.63;;;;;;;7.83;27.46;94673.94;6304432;28;20078;-69
2023/03/01 10:18:02;;;;;;;3.15;2.67;;;;;;;7.11;28.64;94673.25;6320973;28;20141;-67
2023/03/01 10:21:20;;;;;;;4.10;3.47;;;;;;;7.25;28.55;94663.38;6322553;28;20040;-68
2023/03/01 10:24:35;;;;;;;3.10;2.80;;;;;;;7.30;27.79;94655.94;6322559;28;20051;-68
2023/03/01 10:28:01;;;;;;;2.60;2.40;;;;;;;6.88;28.62;94645.59;6322490;28;20197;-68
2023/03/01 10:31:12;;;;;;;3.83;3.40;;;;;;;5.48;30.64;94622.44;6322628;28;20085;-69
2023/03/01 10:34:22;;;;;;;2.95;2.72;;;;;;;4.87;31.89;94628.97;6322645;28;20128;-68
2023/03/01 10:37:28;;;;;;;3.33;2.60;;;;;;;5.87;31.09;94627.97;6322342;28;20055;-68
2023/03/01 10:40:34;;;;;;;3.30;3.00;;;;;;;6.60;29.88;94634.09;6322504;28;20117;-68
2023/03/01 10:43:53;;;;;;;3.88;2.90;;;;;;;5.64;30.96;94617.63;6322395;28;20039;-67
2023/03/01 10:47:04;;;;;;;2.20;2.00;;;;;;;5.53;30.99;94635.94;6322034;28;20047;-67
2023/03/01 10:50:22;;;;;;;3.88;2.83;;;;;;;4.84;31.90;94638.78;6321887;28;20532;-68
2023/03/01 10:53:31;;;;;;;2.70;2.50;;;;;;;3.51;34.13;94658.28;6321630;28;20447;-68
2023/03/01 10:56:48;;;;;;;2.42;2.22;;;;;;;2.53;36.20;94646.19;6321346;28;20219;-68
2023/03/01 11:00:04;;;;;;;3.10;2.90;;;;;;;1.79;37.73;94641.59;6321441;28;20063;-68
2023/03/01 11:03:14;;;;;;;3.75;3.10;;;;;;;1.18;39.52;94652.50;6321305;28;20048;-67
2023/03/01 11:06:22;;;;;;;2.33;2.08;;;;;;;1.17;40.06;94667.22;6321206;28;20048;-67
2023/03/01 11:09:32;;;;;;;2.42;1.40;;;;;;;0.74;40.91;94672.50;6320451;28;20528;-67
2023/03/01 11:12:34;;;;;;;3.70;2.30;;;;;;;0.31;42.41;94672.50;6321301;28;20039;-67
2023/03/01 11:15:36;;;;;;;2.47;2.28;;;;;;;0.10;42.81;94671.19;6321261;28;20532;-68
2023/03/01 11:18:40;;;;;;;3.15;1.95;;;;;;;-0.33;43.45;94668.53;6321124;28;20052;-67
2023/03/01 11:21:49;;;;;;;1.77;1.65;;;;;;;-0.32;43.69;94680.50;6320683;28;20044;-68
2023/03/01 11:24:58;;;;;;;2.90;1.90;;;;;;;-0.46;44.02;94666.63;6320786;28;20040;-68
2023/03/01 11:28:04;;;;;;;2.50;1.90;;;;;;;-0.61;44.64;94664.91;6321141;28;20188;-69
2023/03/01 11:31:12;;;;;;;2.65;2.15;;;;;;;-0.64;44.56;94708.16;6321408;28;20131;-68
2023/03/01 11:34:25;;;;;;;2.45;2.15;;;;;;;-0.62;44.42;94680.47;6321132;28;20036;-69
2023/03/01 11:37:43;;;;;;;2.53;2.33;;;;;;;-1.02;45.08;94670.63;6319360;28;20052;-67
2023/03/01 11:40:52;;;;;;;1.75;1.63;;;;;;;-1.13;45.11;94684.13;6320844;28;20127;-69
2023/03/01 11:44:24;;;;;;;2.78;2.28;;;;;;;-1.33;45.94;94670.59;6320845;28;20048;-68
2023/03/01 11:47:34;;;;;;;2.88;1.83;;;;;;;-1.27;45.90;94681.44;6312230;28;20055;-68
2023/03/01 11:50:48;;;;;;;2.90;2.10;;;;;;;-1.46;46.50;94684.16;6320419;28;20032;-68
2023/03/01 11:53:57;;;;;;;2.28;1.80;;;;;;;-1.42;46.15;94675.34;6320743;28;20040;-67
2023/03/01 11:57:17;;;;;;;3.67;2.33;;;;;;;-1.63;46.46;94661.84;6320230;28;20040;-67
2023/03/01 12:00:26;;;;;;;4.68;3.17;;;;;;;-2.03;46.85;94694.84;6320389;28;20079;-68
2023/03/01 12:03:52;;;;;;;3.22;2.35;;;;;;;-2.09;46.86;94689.16;6320012;28;20493;-67
2023/03/01 12:07:05;;;;;;;3.97;2.47;;;;;;;-2.11;47.46;94675.53;6318890;28;20044;-68
2023/03/01 12:10:20;;;;;;;6.27;3.00;;;;;;;-2.28;47.67;94704.69;6320170;28;20050;-68
2023/03/01 12:13:44;;;;;;;3.67;2.10;;;;;;;-2.29;47.76;94688.41;6319955;28;20998;-68
2023/03/01 12:17:18;;;;;;;5.03;2.40;;;;;;;-2.45;48.11;94704.69;6319751;28;20048;-67
2023/03/01 12:20:38;;;;;;;5.40;2.77;;;;;;;-2.50;47.48;94700.59;6288641;28;20491;-68
2023/03/01 12:24:01;;;;;;;2.08;1.83;;;;;;;-2.40;47.82;94689.84;6319623;28;20043;-69
2023/03/01 12:27:20;;;;;;;4.03;2.55;;;;;;;-2.45;47.87;94695.22;6319698;28;20177;-68
2023/03/01 12:30:39;;;;;;;2.30;1.75;;;;;;;-2.42;48.58;94687.34;6319692;28;20036;-68
2023/03/01 12:33:56;;;;;;;3.88;2.67;;;;;;;-2.40;48.52;94687.28;6317551;28;20054;-68
2023/03/01 12:37:16;;;;;;;2.65;2.17;;;;;;;-2.46;48.60;94688.41;6319293;28;20039;-68
2023/03/01 12:41:00;;;;;;;4.15;3.08;;;;;;;-2.68;48.88;94674.91;6319446;28;20466;-68
2023/03/01 12:44:33;;;;;;;1.77;1.65;;;;;;;-2.74;49.28;94697.47;6216785;28;20050;-67
2023/03/01 12:47:51;;;;;;;2.50;1.83;;;;;;;-2.82;50.14;94698.75;6198587;28;20058;-69
2023/03/01 12:50:55;;;;;;;2.83;2.28;;;;;;;-2.86;50.54;94698.06;6319071;28;20055;-69
2023/03/01 12:54:07;;;;;;;3.50;2.42;;;;;;;-3.08;50.99;94671.66;6317725;28;20525;-68
2023/03/01 12:57:39;;;;;;;3.00;2.47;;;;;;;-2.90;50.71;94670.78;6319148;28;20047;-69
2023/03/01 13:00:58;;;;;;;3.72;2.20;;;;;;;-3.04;51.32;94698.91;6318864;28;20222;-69
2023/03/01 13:04:10;;;;;;;5.13;2.40;;;;;;;-3.09;51.98;94696.53;6319192;28;20044;-68
2023/03/01 13:07:36;;;;;;;3.53;2.25;;;;;;;-2.96;51.47;94702.78;6318917;28;20043;-68
2023/03/01 13:10:48;;;;;;;3.67;2.13;;;;;;;-3.03;51.90;94713.44;6318472;28;20059;-68
2023/03/01 13:13:54;;;;;;;2.55;2.30;;;;;;;-3.39;52.39;94693.66;6319084;28;20044;-66
2023/03/01 13:16:55;;;;;;;2.53;1.95;;;;;;;-3.56;53.10;94702.13;6320265;28;20125;-68
2023/03/01 13:19:58;;;;;;;2.60;1.92;;;;;;;-3.51;53.29;94699.31;6318669;28;20139;-69
2023/03/01 13:23:20;;;;;;;2.92;2.10;;;;;;;-3.66;53.67;94704.25;6318913;28;20494;-69
2023/03/01 13:26:26;;;;;;;2.53;2.10;;;;;;;-3.57;53.44;94715.03;6318828;28;20048;-68
2023/03/01 13:29:46;;;;;;;2.55;1.95;;;;;;;-3.58;53.58;94705.66;6318699;28;20043;-68
2023/03/01 13:32:49;;;;;;;2.67;1.60;;;;;;;-3.64;53.68;94699.88;6317970;28;20044;-68
2023/03/01 13:35:58;;;;;;;3.30;1.95;;;;;;;-3.73;53.80;94710.56;6317885;28;20047;-68
2023/03/01 13:39:38;;;;;;;7.55;3.53;;;;;;;-3.96;54.62;94697.88;6318228;28;20044;-68
2023/03/01 13:42:46;;;;;;;2.10;1.95;;;;;;;-3.91;54.43;94711.34;6318549;28;20044;-67
2023/03/01 13:45:50;;;;;;;3.10;2.33;;;;;;;-4.30;55.26;94705.28;6322105;28;20044;-68
2023/03/01 13:48:56;;;;;;;8.73;5.00;;;;;;;-4.57;56.31;94707.25;6323657;28;20266;-68
2023/03/01 13:51:58;;;;;;;4.85;2.70;;;;;;;-4.59;56.34;94724.44;6323030;28;20169;-68
2023/03/01 13:55:06;;;;;;;1.67;1.35;;;;;;;-4.44;56.04;94709.34;6323621;28;20521;-67
2023/03/01 13:58:30;;;;;;;4.00;2.50;;;;;;;-4.63;56.62;94704.94;6323102;28;20040;-67
2023/03/01 14:01:36;;;;;;;2.63;1.75;;;;;;;-4.59;56.64;94703.91;6321648;28;20040;-70
2023/03/01 14:04:40;;;;;;;4.32;2.67;;;;;;;-4.77;56.69;94714.91;6323292;28;20040;-69
2023/03/01 14:07:42;;;;;;;3.20;2.05;;;;;;;-4.77;56.88;94731.13;6321954;28;20032;-69
2023/03/01 14:10:50;;;;;;;6.22;3.55;;;;;;;-4.84;56.57;94713.47;6322653;28;20051;-68
2023/03/01 14:14:18;;;;;;;5.82;3.60;;;;;;;-5.06;57.30;94734.84;6322519;28;20048;-68
2023/03/01 14:17:51;;;;;;;5.50;3.83;;;;;;;-5.15;57.01;94719.81;6321462;28;20143;-67
2023/03/01 14:21:00;;;;;;;7.53;4.30;;;;;;;-5.11;57.28;94721.34;6322926;28;20048;-68
2023/03/01 14:24:03;;;;;;;3.53;2.72;;;;;;;-5.17;57.32;94715.66;6322634;28;20310;-69
2023/03/01 14:27:13;;;;;;;5.43;3.35;;;;;;;-5.17;57.22;94708.78;6322681;28;20043;-70
2023/03/01 14:30:24;;;;;;;5.65;3.60;;;;;;;-5.27;57.93;94705.72;6323268;28;20044;-67
2023/03/01 14:33:41;;;;;;;4.65;3.58;;;;;;;-5.40;58.30;94708.81;6322910;28;20048;-67
2023/03/01 14:36:42;;;;;;;5.22;3.38;;;;;;;-5.32;57.93;94711.91;6322811;28;20138;-67
2023/03/01 14:39:43;;;;;;;5.93;2.80;;;;;;;-5.43;58.61;94705.47;6321721;28;20048;-67
2023/03/01 14:42:50;;;;;;;8.50;5.13;;;;;;;-5.44;57.95;94719.16;6322263;28;20051;-68
2023/03/01 14:45:56;;;;;;;6.10;4.22;;;;;;;-5.53;58.30;94714.38;6322174;28;20052;-67
2023/03/01 14:49:25;;;;;;;1.80;1.60;;;;;;;-5.35;58.49;94727.41;6322114;28;20036;-67